x

Venice, Fl (venf1) Weather Station

9:00pm - Fri 18th Aug 2017 All times are EDT. -4 hours from GMT.

  • Wind
    8mph, 10mph gusts
  • Sea Temp 90°f
  • Air Temp 82°f
  • Sea Pressure 1016mb
  • Venice, Fl
  • Venice, Fl

More Historic Weather Station data

Upgrade to MSW Pro to gain access to the past 30 days of data for over 8000 Wavebouys and Weather Stations around the globe.

Join

Comparision Forecast

View Surf forecast
   
Fri 08/18 9:00pm 8 10 mph 1016mb 90f 82f
8:00pm 10 11 mph 1015mb 91f 84f
7:00pm 16 17 mph 1015.8mb 91f 85f
6:00pm 17 20 mph 1015.5mb 91f 85f
5:00pm 17 18 mph 1014.9mb 92f 86f
4:00pm 14 16 mph 1015.7mb 91f 87f
3:00pm 8 9 mph 1015.6mb 91f 88f
2:00pm 8 9 mph 1016.7mb 91f 88f
1:00pm 6 7 mph 1017.1mb 90f 88f
12:00pm 6 6 mph 1017.6mb 89f 87f
11:00am 2 2 mph 1017.7mb 89f 86f
10:00am 2 3 mph 1017.5mb 89f 83f
9:00am 5 7 mph 1017mb 89f 82f
8:00am 5 6 mph 1016.6mb 89f 80f
7:00am 3 5 mph 1016.2mb 89f 77f
6:00am 6 7 mph 1015.9mb 89f 78f
5:00am 6 7 mph 1015.7mb 89f 78f
4:00am 3 5 mph 1016mb 89f 78f
3:00am 6 7 mph 1016.3mb 90f 78f
2:00am 7 7 mph 1016.7mb 90f 78f
1:00am 5 7 mph 1017.3mb 90f 78f
12:00am 10 11 mph 1017.6mb 90f 78f
Thu 08/17 11:00pm 8 10 mph 1018.1mb 90f 79f
10:00pm 8 9 mph 1018.7mb 91f 82f
9:00pm 7 9 mph 1017.8mb 91f 87f
8:00pm 9 10 mph 1017mb 91f 88f
7:00pm 10 11 mph 1016.7mb 91f 87f
6:00pm 11 14 mph 1016.4mb 92f 87f
5:00pm 2 5 mph 1016.9mb 92f 85f
4:00pm 9 10 mph 1017.6mb 92f 83f
3:00pm 14 15 mph 1017.4mb 92f 88f
2:00pm 9 10 mph 1018.1mb 91f 88f
1:00pm 8 9 mph 1018.7mb 91f 88f
12:00pm 5 7 mph 1018.9mb 90f 87f
11:00am 3 3 mph 1019.1mb 89f 88f
10:00am 2 2 mph 1019mb 89f 86f
9:00am 5 6 mph 1019.2mb 89f 84f
8:00am 5 6 mph 1018.9mb 89f 81f
7:00am 5 6 mph 1018.5mb 89f 79f
6:00am 6 6 mph 1018.2mb 89f 79f
5:00am 5 6 mph 1017.5mb 89f 80f
4:00am 6 6 mph 1017.7mb 89f 80f
3:00am 6 7 mph 1018.1mb 90f 80f
2:00am 6 6 mph 1018.1mb 90f 80f
1:00am 7 7 mph 1018.7mb 90f 81f
12:00am 6 6 mph 1018.7mb 90f 81f
Wed 08/16 11:00pm 3 5 mph 1018.9mb 90f 82f
10:00pm 6 7 mph 1018.7mb 90f 82f
9:00pm 2 3 mph 1017.7mb 91f 85f
8:00pm 2 2 mph 1017.6mb 91f 85f
7:00pm 7 8 mph 1017.7mb 91f 88f
6:00pm 7 8 mph 1017.7mb 91f 88f
5:00pm 10 11 mph 1017.4mb 92f 87f
4:00pm 13 14 mph 1017.8mb 92f 87f
3:00pm 13 14 mph 1018mb 92f 87f
2:00pm 10 11 mph 1018.6mb 92f 87f
1:00pm 10 11 mph 1019.3mb 91f 88f
12:00pm 7 8 mph 1019.7mb 90f 89f
11:00am 3 5 mph 1019.8mb 90f 88f
10:00am 3 8 mph 1019.4mb 90f 87f
9:00am 5 7 mph 1019.2mb 90f 85f
8:00am 3 6 mph 1018.7mb 90f 82f
7:00am 6 7 mph 1017.6mb 90f 81f
6:00am 6 7 mph 1017.1mb 90f 81f
5:00am 3 3 mph 1016.6mb 90f 82f
4:00am 5 5 mph 1016.5mb 91f 82f
3:00am 5 5 mph 1016.7mb 91f 83f
2:00am 5 5 mph 1017.2mb 92f 84f
1:00am 3 5 mph 1017.7mb 92f 85f
12:00am 7 8 mph 1018.1mb 92f 87f
Tue 08/15 11:00pm 5 6 mph 1017.8mb 92f 87f
10:00pm 8 9 mph 1017.2mb 92f 87f
9:00pm 6 7 mph 1016.9mb 92f 87f
8:00pm 8 10 mph 1016.5mb 93f 87f
7:00pm 9 10 mph 1015.9mb 93f 88f
6:00pm 8 9 mph 1015.3mb 93f 88f
5:00pm 9 10 mph 1015.5mb 93f 88f
4:00pm 10 13 mph 1015.7mb 92f 88f
3:00pm 8 9 mph 1016.4mb 92f 87f
2:00pm 9 10 mph 1017mb 92f 87f
1:00pm 7 8 mph 1017.4mb 91f 88f
12:00pm 6 7 mph 1017.6mb 91f 88f
11:00am 3 5 mph 1017.3mb 91f 88f
10:00am 7 7 mph 1016.9mb 90f 88f
9:00am 5 5 mph 1016.5mb 90f 87f
8:00am 3 5 mph 1016.1mb 90f 87f
7:00am 3 3 mph 1015.5mb 90f 83f
6:00am  -  1 mph 1014.9mb 90f 83f
5:00am 3 5 mph 1014.7mb 91f 85f
4:00am 5 6 mph 1014.7mb 91f 85f
3:00am 6 8 mph 1015mb 91f 86f